Time;durP1;ratioP1;P1;durP2;ratioP2;P2;SDS_P1;SDS_P2;PMS_P1;PMS_P2;Temp;Humidity;BMP_temperature;BMP_pressure;BME280_temperature;BME280_humidity;BME280_pressure;Samples;Min_cycle;Max_cycle;Signal;HPM_P1;HPM_P2
2022/02/07 00:08:06;;;;;;;;;;;;;;;;;;;;;
2022/02/07 00:11:39;;;;;;;1.95;1.32;;;;;;;3.01;78.90;98154.38;1784110;95;21167;-80
2022/02/07 00:15:10;;;;;;;;;;;;;;;;;;;;;
2022/02/07 00:18:58;;;;;;;2.67;1.67;;;;;;;3.03;79.22;98135.89;1817571;94;21284;-83
2022/02/07 00:22:04;;;;;;;;;;;;;;;;;;;;;
2022/02/07 00:24:58;;;;;;;3.10;2.45;;;;;;;3.09;79.21;98148.31;2123214;81;21113;-82
2022/02/07 00:32:31;;;;;;;;;;;;;;;;;;;;;
2022/02/07 00:35:56;;;;;;;2.55;2.27;;;;;;;3.31;79.29;98129.26;2099169;81;21343;-82
2022/02/07 00:39:42;;;;;;;;;;;;;;;;;;;;;
2022/02/07 00:46:45;;;;;;;;;;;;;;;;;;;;;
2022/02/07 01:09:40;;;;;;;;;;;;;;;;;;;;;
2022/02/07 01:55:05;;;;;;;4.17;2.10;;;;;;;3.30;78.99;98058.67;2154838;82;21101;-84
2022/02/07 01:58:03;;;;;;;5.50;2.00;;;;;;;3.29;78.94;98063.06;2159405;81;21006;-85
2022/02/07 02:01:06;;;;;;;3.62;2.27;;;;;;;3.27;78.89;98059.82;2156242;81;21104;-84
2022/02/07 02:04:08;;;;;;;3.50;2.15;;;;;;;3.26;78.95;98067.84;2141570;82;20958;-85
2022/02/07 02:07:10;;;;;;;3.33;2.00;;;;;;;3.27;78.96;98063.75;2160824;81;21110;-85
2022/02/07 02:10:12;;;;;;;3.55;2.25;;;;;;;3.27;78.88;98066.38;2161150;81;21038;-85
2022/02/07 02:13:23;;;;;;;3.20;2.00;;;;;;;3.30;78.94;98067.84;2146836;81;21024;-84
2022/02/07 02:16:28;;;;;;;4.95;1.90;;;;;;;3.32;78.92;98054.89;2152188;82;21032;-85
2022/02/07 02:33:14;;;;;;;3.95;2.20;;;;;;;3.40;78.59;98053.20;2154427;81;21133;-84
2022/02/07 02:45:34;;;;;;;3.80;2.05;;;;;;;3.42;78.44;98065.66;2158298;81;21055;-84
2022/02/07 02:48:41;;;;;;;3.67;1.90;;;;;;;3.45;78.38;98064.00;2154178;81;20991;-84
2022/02/07 02:51:40;;;;;;;3.42;1.95;;;;;;;3.45;78.37;98062.69;2158288;81;21048;-84
2022/02/07 02:54:42;;;;;;;2.52;1.60;;;;;;;3.49;78.33;98067.42;2154710;81;21277;-85
2022/02/07 02:57:43;;;;;;;2.65;1.60;;;;;;;3.52;78.13;98069.70;2157189;82;21694;-84
2022/02/07 03:00:48;;;;;;;3.20;1.50;;;;;;;3.55;78.32;98069.36;2154254;82;21097;-85
2022/02/07 03:04:00;;;;;;;4.05;1.57;;;;;;;3.55;78.31;98077.22;2128055;81;21066;-84
2022/02/07 03:07:02;;;;;;;4.15;1.70;;;;;;;3.54;78.37;98098.36;2157950;82;21308;-84
2022/02/07 03:10:06;;;;;;;2.40;1.47;;;;;;;3.49;78.55;98101.52;2154778;81;21156;-86
2022/02/07 03:19:30;;;;;;;2.03;1.40;;;;;;;3.32;79.49;98116.96;2154422;81;20995;-85
2022/02/07 03:22:33;;;;;;;1.20;1.10;;;;;;;3.26;79.71;98126.31;2159074;81;21895;-86
2022/02/07 03:25:35;;;;;;;1.10;0.90;;;;;;;3.20;79.71;98132.73;2154439;82;21112;-84
2022/02/07 03:28:37;;;;;;;1.47;1.20;;;;;;;3.12;79.92;98151.91;2157116;81;21029;-86
2022/02/07 03:31:39;;;;;;;0.85;0.78;;;;;;;3.06;79.94;98155.20;2158161;81;21468;-84
2022/02/07 03:34:40;;;;;;;1.40;1.17;;;;;;;2.98;80.09;98167.81;2155247;82;21121;-85
2022/02/07 03:37:42;;;;;;;3.35;0.90;;;;;;;2.89;79.86;98175.37;2157917;82;21644;-85
2022/02/07 03:40:45;;;;;;;1.52;0.88;;;;;;;2.76;79.76;98202.54;2160901;81;21721;-83
2022/02/07 03:43:47;;;;;;;2.25;1.05;;;;;;;2.64;79.87;98201.55;2150533;81;21056;-84
2022/02/07 03:46:49;;;;;;;1.42;1.20;;;;;;;2.53;79.93;98195.33;2151137;81;21049;-85
2022/02/07 03:49:52;;;;;;;3.12;1.05;;;;;;;2.45;80.09;98209.74;2152540;81;21084;-83
2022/02/07 03:52:54;;;;;;;2.72;1.50;;;;;;;2.40;80.00;98218.06;2158519;81;21057;-84
2022/02/07 03:55:57;;;;;;;2.55;1.20;;;;;;;2.37;80.03;98229.36;2160765;81;21017;-84
2022/02/07 03:58:59;;;;;;;1.47;1.00;;;;;;;2.33;80.06;98235.38;2157280;81;21112;-83
2022/02/07 04:02:02;;;;;;;1.27;0.90;;;;;;;2.29;80.44;98245.04;2158194;81;21031;-85
2022/02/07 04:05:55;;;;;;;3.72;1.07;;;;;;;2.26;80.28;98246.67;2150736;81;21034;-83
2022/02/07 04:08:11;;;;;;;2.50;1.20;;;;;;;2.23;80.40;98265.63;2134083;81;21056;-84
2022/02/07 04:11:31;;;;;;;3.42;0.90;;;;;;;2.21;80.71;98276.73;2155672;81;21006;-83
2022/02/07 04:14:28;;;;;;;2.22;1.10;;;;;;;2.22;80.76;98276.24;2147246;81;21053;-84
2022/02/07 04:17:36;;;;;;;6.95;1.52;;;;;;;2.24;80.87;98279.03;2153829;81;21119;-85
2022/02/07 04:20:39;;;;;;;4.72;1.30;;;;;;;2.28;80.59;98285.25;2156161;81;21076;-85
2022/02/07 04:23:41;;;;;;;1.60;1.40;;;;;;;2.28;80.32;98284.80;2152832;82;21004;-84
2022/02/07 04:26:44;;;;;;;2.90;1.30;;;;;;;2.29;80.11;98301.31;2097875;81;21026;-86
2022/02/07 04:29:47;;;;;;;3.08;1.15;;;;;;;2.30;80.00;98306.37;2153449;81;21081;-84
2022/02/07 04:32:48;;;;;;;1.22;1.10;;;;;;;2.31;79.95;98318.50;2158250;82;21010;-84
2022/02/07 04:35:50;;;;;;;2.83;1.00;;;;;;;2.33;79.89;98319.63;2160472;81;20994;-84
2022/02/07 04:38:51;;;;;;;2.05;1.10;;;;;;;2.33;79.81;98307.85;2158644;81;21084;-81
2022/02/07 04:41:56;;;;;;;3.67;1.35;;;;;;;2.36;79.74;98329.78;2150923;82;21008;-84
2022/02/07 04:51:45;;;;;;;2.30;1.00;;;;;;;2.42;79.68;98354.02;2160014;81;21013;-84
2022/02/07 04:54:48;;;;;;;2.77;0.88;;;;;;;2.42;79.64;98356.63;2153774;82;21009;-85
2022/02/07 05:03:46;;;;;;;2.70;1.22;;;;;;;2.47;78.93;98383.16;2152909;82;21057;-84
2022/02/07 05:13:45;;;;;;;3.02;1.02;;;;;;;2.45;77.84;98405.59;2150979;81;21348;-86
2022/02/07 05:16:43;;;;;;;1.67;1.35;;;;;;;2.46;77.67;98410.33;2155510;81;21312;-84
2022/02/07 05:19:48;;;;;;;2.92;1.47;;;;;;;2.44;77.68;98417.02;2151972;81;21610;-85
2022/02/07 05:22:54;;;;;;;4.10;1.70;;;;;;;2.39;77.63;98414.08;2108759;81;21037;-85
2022/02/07 05:26:17;;;;;;;2.40;1.20;;;;;;;2.35;77.46;98419.27;2145556;81;21069;-85
2022/02/07 05:29:20;;;;;;;3.50;1.20;;;;;;;2.31;77.50;98431.05;2151861;82;21109;-85
2022/02/07 05:32:25;;;;;;;1.72;1.05;;;;;;;2.24;77.20;98442.60;2156208;81;21075;-85
2022/02/07 05:35:32;;;;;;;1.32;1.20;;;;;;;2.15;77.41;98444.84;2134980;81;21547;-84
2022/02/07 05:38:50;;;;;;;2.75;1.25;;;;;;;2.05;77.63;98437.57;2103028;82;21520;-86
2022/02/07 05:42:09;;;;;;;2.15;1.05;;;;;;;2.01;77.35;98455.87;2155957;81;21158;-84
2022/02/07 05:45:18;;;;;;;1.15;1.05;;;;;;;1.99;77.44;98460.42;2153844;81;21039;-85
2022/02/07 05:48:33;;;;;;;3.15;1.10;;;;;;;1.94;77.50;98484.44;2114482;81;21750;-85
2022/02/07 05:51:56;;;;;;;4.55;1.27;;;;;;;1.91;77.65;98487.33;2149618;82;21077;-84
2022/02/07 05:55:11;;;;;;;9.80;1.40;;;;;;;1.89;77.24;98496.33;2100213;81;21038;-85
2022/02/07 05:58:28;;;;;;;4.40;2.08;;;;;;;1.88;77.44;98513.80;2144820;81;21603;-84
2022/02/07 06:01:31;;;;;;;5.08;1.60;;;;;;;1.86;77.36;98548.45;2150529;81;21069;-85
2022/02/07 06:04:34;;;;;;;2.98;1.80;;;;;;;1.85;77.67;98548.59;2154749;81;21085;-84
2022/02/07 06:07:35;;;;;;;2.58;1.22;;;;;;;1.75;77.96;98576.95;2149931;82;21024;-85
2022/02/07 06:10:37;;;;;;;3.45;1.50;;;;;;;1.70;78.05;98588.34;2159727;81;21061;-89
2022/02/07 06:13:39;;;;;;;2.85;1.50;;;;;;;1.67;78.21;98599.09;2136093;82;21012;-87
2022/02/07 06:16:42;;;;;;;1.95;1.30;;;;;;;1.70;77.91;98621.52;2157475;81;21097;-85
2022/02/07 06:19:44;;;;;;;1.60;1.22;;;;;;;1.70;77.85;98624.95;2150015;81;21030;-86
2022/02/07 06:22:47;;;;;;;4.78;1.52;;;;;;;1.71;78.02;98627.07;2155880;81;22070;-84
2022/02/07 06:25:49;;;;;;;2.12;1.30;;;;;;;1.70;77.88;98639.33;2152075;81;21132;-85
2022/02/07 06:28:51;;;;;;;2.77;1.40;;;;;;;1.67;77.75;98638.31;2155089;81;21073;-84
2022/02/07 06:31:54;;;;;;;1.92;1.45;;;;;;;1.69;77.78;98654.69;2152499;82;21089;-84
2022/02/07 06:34:55;;;;;;;3.12;1.32;;;;;;;1.69;77.83;98670.38;2153368;81;21045;-86
2022/02/07 06:37:57;;;;;;;1.35;1.25;;;;;;;1.70;77.89;98673.81;2153586;82;21076;-85
2022/02/07 06:41:00;;;;;;;2.60;1.30;;;;;;;1.70;77.30;98684.27;2156386;81;21516;-85
2022/02/07 06:44:03;;;;;;;2.83;1.20;;;;;;;1.72;77.55;98689.70;2154996;81;21060;-86
2022/02/07 06:47:06;;;;;;;1.62;1.27;;;;;;;1.71;77.28;98695.88;2161014;81;21080;-86
2022/02/07 06:50:09;;;;;;;5.05;1.35;;;;;;;1.71;77.01;98703.72;2158510;81;21089;-85
2022/02/07 06:53:12;;;;;;;1.30;1.10;;;;;;;1.71;77.06;98705.03;2158371;81;21081;-85
2022/02/07 06:56:15;;;;;;;2.80;1.40;;;;;;;1.72;76.99;98717.16;2153963;82;21511;-86
2022/02/07 06:59:19;;;;;;;2.22;1.25;;;;;;;1.73;77.03;98725.82;2159912;81;21014;-84
2022/02/07 07:02:26;;;;;;;2.52;1.50;;;;;;;1.71;77.18;98729.88;2156420;81;21132;-86
2022/02/07 07:05:25;;;;;;;2.00;1.25;;;;;;;1.71;77.30;98749.48;2154242;82;21157;-86
2022/02/07 07:08:35;;;;;;;4.42;1.40;;;;;;;1.72;77.40;98756.38;2157928;81;21085;-84
2022/02/07 07:11:33;;;;;;;3.95;1.50;;;;;;;1.72;77.56;98768.16;2150223;81;21052;-88
2022/02/07 07:14:47;;;;;;;3.25;1.60;;;;;;;1.69;77.56;98765.83;2157346;82;21082;-90
2022/02/07 07:17:46;;;;;;;3.47;1.62;;;;;;;1.69;77.72;98779.36;2153991;82;21068;-89
2022/02/07 07:20:48;;;;;;;7.35;1.92;;;;;;;1.70;77.90;98796.72;2157263;81;21093;-89
2022/02/07 07:23:50;;;;;;;2.80;1.55;;;;;;;1.69;78.35;98799.82;2154520;81;21603;-89
2022/02/07 07:26:52;;;;;;;3.40;1.55;;;;;;;1.69;78.01;98805.51;2154678;81;21136;-88
2022/02/07 07:29:56;;;;;;;4.78;1.70;;;;;;;1.69;78.13;98818.13;2154673;82;21049;-90
2022/02/07 07:33:03;;;;;;;4.00;1.80;;;;;;;1.70;78.14;98821.07;2155621;82;21061;-90
2022/02/07 07:36:02;;;;;;;3.45;1.50;;;;;;;1.72;78.22;98836.14;2134517;82;21038;-88
2022/02/07 07:39:05;;;;;;;3.70;1.87;;;;;;;1.72;78.24;98851.84;2158356;81;21061;-88
2022/02/07 07:42:07;;;;;;;4.20;2.33;;;;;;;1.70;78.49;98850.33;2159211;81;21619;-88
2022/02/07 07:45:32;;;;;;;4.80;1.65;;;;;;;1.65;78.61;98865.61;2151441;81;21020;-88
2022/02/07 07:48:46;;;;;;;;;;;;;;;1.59;78.95;98873.53;2163986;82;21292;-87
2022/02/07 07:51:51;;;;;;;2.67;1.60;;;;;;;1.57;79.15;98878.88;2156641;81;20132;-88
2022/02/07 08:01:53;;;;;;;3.33;1.52;;;;;;;1.63;78.78;98904.95;2156437;81;21069;-90
2022/02/07 08:04:49;;;;;;;2.08;1.87;;;;;;;1.64;78.43;98904.02;2155577;82;21044;-88
2022/02/07 08:07:55;;;;;;;6.80;2.37;;;;;;;1.65;78.61;98926.57;2157905;81;21065;-88
2022/02/07 08:11:03;;;;;;;2.77;1.60;;;;;;;1.66;78.71;98928.24;2166515;81;21113;-88
2022/02/07 08:13:59;;;;;;;2.92;1.60;;;;;;;1.67;78.81;98944.75;2154056;81;21100;-87
2022/02/07 08:17:04;;;;;;;4.10;1.70;;;;;;;1.65;78.62;98951.90;2162685;81;21014;-87
2022/02/07 08:20:06;;;;;;;4.17;1.87;;;;;;;1.64;78.81;98966.77;2155533;81;21025;-88
2022/02/07 08:23:10;;;;;;;2.55;1.45;;;;;;;1.66;78.69;98971.84;2155786;81;21867;-88
2022/02/07 08:26:11;;;;;;;3.98;1.70;;;;;;;1.70;78.62;98972.75;2165213;81;21030;-88
2022/02/07 08:29:14;;;;;;;3.10;1.50;;;;;;;1.74;78.69;98984.57;2155540;81;21507;-88
2022/02/07 08:32:15;;;;;;;2.67;1.55;;;;;;;1.74;78.57;98993.73;2155159;82;21001;-88
2022/02/07 08:35:16;;;;;;;3.92;1.67;;;;;;;1.76;78.52;99006.68;2152947;82;21081;-87
2022/02/07 08:38:19;;;;;;;3.37;1.40;;;;;;;1.77;78.46;99003.94;2160117;82;21057;-87
2022/02/07 08:41:21;;;;;;;2.00;1.45;;;;;;;1.83;78.27;99007.80;2161877;81;21065;-87
2022/02/07 08:44:22;;;;;;;2.08;1.12;;;;;;;1.89;78.04;99020.80;2153711;81;21029;-87
2022/02/07 08:47:24;;;;;;;4.80;1.45;;;;;;;1.96;77.82;99017.96;2157548;82;21072;-88
2022/02/07 08:50:27;;;;;;;2.67;1.27;;;;;;;2.03;78.06;99029.54;2159420;81;21310;-87
2022/02/07 08:53:34;;;;;;;2.98;1.62;;;;;;;2.11;77.81;99033.60;2153004;81;21076;-88
2022/02/07 08:56:45;;;;;;;2.70;1.62;;;;;;;2.18;77.61;99041.22;2158775;81;21037;-88
2022/02/07 08:59:57;;;;;;;5.30;2.60;;;;;;;2.23;77.78;99045.56;2152949;81;20970;-87
2022/02/07 09:06:05;;;;;;;6.58;1.98;;;;;;;2.29;77.12;99049.41;2158289;82;21022;-87
2022/02/07 09:09:07;;;;;;;2.85;1.65;;;;;;;2.27;76.72;99046.59;2150772;80;21576;-89
2022/02/07 09:11:57;;;;;;;4.00;1.90;;;;;;;2.30;77.42;99069.38;2159486;81;21050;-88
2022/02/07 09:15:06;;;;;;;3.80;1.77;;;;;;;2.35;76.89;99067.66;2157314;81;21009;-88
2022/02/07 09:18:05;;;;;;;4.87;1.80;;;;;;;2.44;76.95;99073.36;2142766;82;21049;-88
2022/02/07 09:21:07;;;;;;;1.92;1.40;;;;;;;2.61;76.49;99070.01;2161334;81;21116;-87
2022/02/07 09:24:08;;;;;;;2.77;1.40;;;;;;;2.90;76.14;99077.81;2153870;82;21056;-88
2022/02/07 09:27:10;;;;;;;3.80;1.60;;;;;;;3.11;75.74;99095.93;2156202;81;21081;-88
2022/02/07 09:30:11;;;;;;;3.65;1.52;;;;;;;3.49;75.61;99090.18;2157694;81;21029;-88
2022/02/07 09:33:13;;;;;;;3.20;1.30;;;;;;;3.76;75.46;99115.55;2155774;82;21080;-88
2022/02/07 09:36:16;;;;;;;2.22;1.30;;;;;;;3.98;73.10;99112.99;2158830;82;21053;-87
2022/02/07 09:39:17;;;;;;;2.22;1.30;;;;;;;3.79;73.89;99131.00;2153116;82;20994;-87
2022/02/07 09:42:20;;;;;;;1.82;1.30;;;;;;;3.57;73.26;99140.58;2156395;82;21546;-88
2022/02/07 09:45:31;;;;;;;1.95;1.35;;;;;;;3.39;73.80;99152.33;2158087;82;21156;-88
2022/02/07 09:48:26;;;;;;;3.42;1.50;;;;;;;3.22;74.63;99155.71;2161145;82;21502;-87
2022/02/07 09:51:27;;;;;;;2.87;1.60;;;;;;;3.04;75.05;99159.08;2163864;82;21037;-88
2022/02/07 09:54:29;;;;;;;3.52;1.65;;;;;;;2.90;74.88;99176.07;2156323;81;21143;-88
2022/02/07 09:57:31;;;;;;;3.35;1.80;;;;;;;2.85;75.02;99176.97;2158102;82;21036;-88
2022/02/07 10:00:35;;;;;;;5.65;2.10;;;;;;;2.84;74.80;99167.92;2156790;82;21065;-88
2022/02/07 10:04:00;;;;;;;2.85;1.70;;;;;;;2.80;74.65;99199.31;2158258;81;21352;-89
2022/02/07 10:07:03;;;;;;;1.65;1.30;;;;;;;2.75;74.32;99185.80;2152514;81;21021;-88
2022/02/07 10:10:28;;;;;;;4.75;1.30;;;;;;;2.76;74.23;99200.55;2152993;80;21595;-87
2022/02/07 10:13:39;;;;;;;5.60;1.57;;;;;;;2.77;73.74;99216.63;2152245;81;20999;-88
2022/02/07 10:19:55;;;;;;;5.37;1.80;;;;;;;2.85;73.88;99229.86;2084038;85;21460;-87
2022/02/07 10:34:25;;;;;;;3.15;1.57;;;;;;;2.97;74.47;99224.80;2111073;83;20995;-88
2022/02/07 10:39:15;;;;;;;2.08;1.42;;;;;;;3.24;73.03;99250.76;2115224;83;21033;-87
2022/02/07 10:42:31;;;;;;;4.53;2.30;;;;;;;3.25;72.79;99248.50;2119101;84;21585;-87
2022/02/07 10:45:14;;;;;;;4.53;2.33;;;;;;;3.26;73.65;99256.70;2105844;84;21127;-87
2022/02/07 10:48:43;;;;;;;6.70;2.42;;;;;;;3.45;73.41;99249.28;2111023;83;20959;-89
2022/02/07 10:51:45;;;;;;;5.22;2.40;;;;;;;3.43;73.17;99255.96;2113405;83;20993;-87
2022/02/07 10:54:51;;;;;;;2.65;1.60;;;;;;;3.69;74.14;99265.83;2105498;84;21016;-87
2022/02/07 10:57:57;;;;;;;4.05;2.80;;;;;;;4.09;73.22;99262.09;2109004;83;21053;-88
2022/02/07 11:01:10;;;;;;;4.12;2.33;;;;;;;4.17;73.49;99275.31;2107707;83;21044;-86
2022/02/07 11:04:11;;;;;;;4.10;2.12;;;;;;;4.15;73.67;99282.50;2108470;83;21021;-88
2022/02/07 11:07:10;;;;;;;5.25;1.90;;;;;;;4.17;73.72;99287.95;2113091;83;21002;-87
2022/02/07 11:16:55;;;;;;;5.25;2.20;;;;;;;3.05;75.03;99307.50;2094036;83;21043;-85
2022/02/07 11:19:55;;;;;;;5.37;2.17;;;;;;;2.84;75.76;99312.03;2108146;83;20995;-88
2022/02/07 11:26:36;;;;;;;3.72;1.75;;;;;;;3.36;77.25;99303.41;2118596;83;21126;-87
2022/02/07 11:29:48;;;;;;;10.45;3.40;;;;;;;3.62;75.91;99301.00;2122821;83;21524;-86
2022/02/07 11:32:54;;;;;;;6.97;2.15;;;;;;;3.79;75.87;99306.81;2119777;83;21071;-86
2022/02/07 11:35:55;;;;;;;6.10;1.90;;;;;;;4.01;75.38;99308.25;2118151;83;21595;-88
2022/02/07 11:39:20;;;;;;;4.08;1.70;;;;;;;4.16;75.25;99309.91;2116879;84;21059;-87
2022/02/07 11:42:21;;;;;;;5.42;2.17;;;;;;;4.27;73.62;99316.78;2121563;83;21024;-87
2022/02/07 11:45:23;;;;;;;5.97;2.17;;;;;;;4.32;74.21;99335.56;2123280;83;21016;-88
2022/02/07 11:48:35;;;;;;;4.62;2.42;;;;;;;4.35;74.72;99336.58;2119554;83;21023;-87
2022/02/07 11:51:40;;;;;;;4.47;2.27;;;;;;;4.26;74.08;99338.77;2114169;83;21065;-87
2022/02/07 11:54:41;;;;;;;6.92;2.33;;;;;;;4.48;75.00;99344.13;2117591;83;21007;-87
2022/02/07 11:58:09;;;;;;;3.35;1.90;;;;;;;4.66;73.69;99341.53;2119881;83;21010;-87
2022/02/07 12:01:08;;;;;;;4.45;2.00;;;;;;;4.76;74.50;99356.76;2114285;83;21033;-88
2022/02/07 12:04:09;;;;;;;6.47;2.10;;;;;;;4.75;72.46;99364.28;2109198;83;21597;-87
2022/02/07 12:07:25;;;;;;;6.12;3.15;;;;;;;4.52;73.03;99374.87;2099711;83;21005;-87
2022/02/07 12:13:39;;;;;;;13.13;2.55;;;;;;;4.26;72.15;99371.59;2109426;83;21904;-86
2022/02/07 12:16:45;;;;;;;7.12;2.35;;;;;;;4.10;72.83;99404.20;2101866;83;21507;-86
2022/02/07 12:19:47;;;;;;;3.98;1.60;;;;;;;4.01;72.18;99405.39;2106489;83;20988;-88
2022/02/07 12:23:07;;;;;;;4.75;2.08;;;;;;;3.84;71.94;99414.48;2112544;83;21002;-90
2022/02/07 12:26:16;;;;;;;6.10;1.90;;;;;;;3.69;72.69;99400.48;2111872;84;21122;-88
2022/02/07 12:29:36;;;;;;;5.25;1.60;;;;;;;3.50;72.98;99419.69;2100012;84;21029;-88
2022/02/07 12:32:24;;;;;;;10.80;2.20;;;;;;;3.40;73.10;99414.91;2103850;84;21008;-88
2022/02/07 12:35:26;;;;;;;4.67;1.77;;;;;;;3.43;73.59;99436.11;2110164;83;21112;-87
2022/02/07 12:38:35;;;;;;;5.05;2.10;;;;;;;3.44;73.14;99420.73;2105893;83;21029;-87
2022/02/07 12:41:37;;;;;;;8.33;2.30;;;;;;;3.50;73.20;99422.31;2106560;83;21286;-89
2022/02/07 12:44:39;;;;;;;4.83;2.05;;;;;;;3.61;72.76;99429.70;2100237;83;21036;-88
2022/02/07 12:47:41;;;;;;;4.83;1.82;;;;;;;3.65;72.20;99435.00;2114136;83;21039;-88
2022/02/07 12:50:49;;;;;;;6.33;1.82;;;;;;;3.63;71.37;99448.25;2103548;84;21041;-87
2022/02/07 12:53:52;;;;;;;5.08;1.87;;;;;;;3.59;70.85;99435.90;2118430;84;21025;-88
2022/02/07 12:57:00;;;;;;;3.62;1.60;;;;;;;3.62;71.90;99433.97;2110352;83;21523;-87
2022/02/07 13:00:04;;;;;;;5.35;2.20;;;;;;;3.65;71.62;99448.95;2107391;83;21505;-86
2022/02/07 13:03:05;;;;;;;6.03;2.27;;;;;;;3.74;71.42;99460.40;2109999;83;21716;-88
2022/02/07 13:06:06;;;;;;;4.20;2.00;;;;;;;3.75;71.12;99455.03;2107169;83;21002;-87
2022/02/07 13:09:28;;;;;;;7.40;2.87;;;;;;;3.77;71.27;99467.53;2107414;83;21067;-87
2022/02/07 13:15:35;;;;;;;6.92;2.55;;;;;;;3.75;71.00;99481.27;2108273;83;21547;-87
2022/02/07 13:18:40;;;;;;;6.53;2.33;;;;;;;3.65;72.05;99507.16;2106391;83;21029;-87
2022/02/07 13:21:48;;;;;;;8.13;2.72;;;;;;;3.45;72.75;99518.94;2109284;84;21751;-89
2022/02/07 13:24:51;;;;;;;6.33;2.27;;;;;;;3.28;74.16;99518.28;2110854;83;21010;-89
2022/02/07 13:27:55;;;;;;;5.10;1.55;;;;;;;3.13;74.20;99525.22;2110752;83;21001;-86
2022/02/07 13:31:00;;;;;;;4.80;1.40;;;;;;;2.98;74.50;99529.64;2107776;84;21077;-88
2022/02/07 13:34:03;;;;;;;5.72;1.92;;;;;;;2.80;74.67;99528.95;2114612;83;20976;-87
2022/02/07 13:37:21;;;;;;;5.40;2.10;;;;;;;2.66;74.89;99547.16;2111655;83;21030;-88
2022/02/07 13:40:24;;;;;;;3.02;1.67;;;;;;;2.60;75.48;99548.99;2109828;83;21025;-88
2022/02/07 13:43:31;;;;;;;7.72;2.15;;;;;;;2.57;75.71;99562.34;2110768;83;21552;-87
2022/02/07 13:46:33;;;;;;;7.60;2.95;;;;;;;2.60;76.03;99570.44;2103689;83;20962;-88
2022/02/07 13:49:56;;;;;;;5.47;2.40;;;;;;;2.63;75.86;99581.47;2107695;83;21515;-89
2022/02/07 13:53:03;;;;;;;7.80;2.98;;;;;;;2.64;75.89;99589.67;2109991;83;21016;-88
2022/02/07 13:56:05;;;;;;;16.57;5.50;;;;;;;2.66;75.87;99596.11;2106062;83;20992;-88
2022/02/07 13:59:16;;;;;;;24.37;6.75;;;;;;;2.66;76.18;99600.86;2108389;83;20955;-88
2022/02/07 14:02:28;;;;;;;24.80;6.47;;;;;;;2.70;76.09;99601.42;2101805;83;21003;-87
2022/02/07 14:05:37;;;;;;;11.38;4.37;;;;;;;2.74;76.27;99617.25;2109047;83;21030;-87
2022/02/07 14:08:52;;;;;;;16.10;6.22;;;;;;;2.77;76.51;99622.23;2110421;83;21065;-88
2022/02/07 14:11:58;;;;;;;18.07;7.12;;;;;;;2.78;76.98;99626.98;2112656;83;21010;-86
2022/02/07 14:14:57;;;;;;;42.40;14.23;;;;;;;2.78;76.75;99634.84;2107765;84;20955;-87
2022/02/07 14:18:01;;;;;;;15.32;6.42;;;;;;;2.81;76.67;99641.14;2104481;83;21077;-88
2022/02/07 14:21:08;;;;;;;8.35;3.37;;;;;;;2.84;76.56;99643.50;2107823;83;21038;-87
2022/02/07 14:24:05;;;;;;;12.78;3.75;;;;;;;2.87;76.28;99648.48;2110247;83;21038;-88
2022/02/07 14:27:08;;;;;;;6.45;2.85;;;;;;;2.91;76.12;99645.97;2106455;83;21041;-88
2022/02/07 14:30:10;;;;;;;8.63;3.15;;;;;;;2.95;76.20;99657.02;2107627;83;21005;-88
2022/02/07 14:33:11;;;;;;;12.75;3.30;;;;;;;2.98;76.28;99654.95;2108922;83;20998;-88
2022/02/07 14:36:14;;;;;;;7.22;3.10;;;;;;;3.00;76.22;99651.73;2111514;83;21010;-90
2022/02/07 14:39:16;;;;;;;11.50;3.65;;;;;;;3.02;76.18;99652.45;2112932;83;21081;-86
2022/02/07 14:42:18;;;;;;;12.70;3.25;;;;;;;3.05;76.10;99660.05;2091555;83;20982;-87
2022/02/07 14:45:26;;;;;;;12.05;3.40;;;;;;;3.04;75.69;99676.75;2107911;83;20989;-87
2022/02/07 14:48:25;;;;;;;12.18;3.12;;;;;;;3.05;75.63;99686.75;2102618;84;21022;-89
2022/02/07 14:51:27;;;;;;;12.85;5.05;;;;;;;3.03;75.72;99681.62;2104594;83;21026;-88
2022/02/07 14:54:28;;;;;;;15.00;5.22;;;;;;;3.04;75.51;99682.44;2115320;83;20998;-88
2022/02/07 14:57:30;;;;;;;18.77;5.90;;;;;;;3.05;75.51;99697.23;2076763;85;20960;-86
2022/02/07 15:00:31;;;;;;;17.57;5.03;;;;;;;3.05;75.25;99692.81;2104333;84;20987;-87
2022/02/07 15:03:33;;;;;;;12.00;3.83;;;;;;;3.06;74.93;99704.95;2117311;83;21037;-87
2022/02/07 15:06:34;;;;;;;11.50;3.72;;;;;;;3.07;74.73;99707.94;2111755;83;21494;-88
2022/02/07 15:09:35;;;;;;;9.13;3.17;;;;;;;3.07;74.86;99718.88;2111366;84;21481;-87
2022/02/07 15:12:37;;;;;;;7.75;3.15;;;;;;;3.07;73.94;99714.95;2107995;83;21005;-87
2022/02/07 15:15:39;;;;;;;13.43;4.22;;;;;;;3.08;73.98;99722.70;2109520;83;21093;-88
2022/02/07 15:18:40;;;;;;;12.50;4.17;;;;;;;3.10;73.95;99731.77;2109903;83;20994;-88
2022/02/07 15:21:42;;;;;;;12.75;3.80;;;;;;;3.10;73.93;99740.94;2105639;83;20983;-89
2022/02/07 15:24:43;;;;;;;11.73;3.12;;;;;;;3.11;73.87;99732.92;2110251;83;20961;-88
2022/02/07 15:27:47;;;;;;;10.68;4.03;;;;;;;3.10;73.40;99725.20;2110609;84;20974;-88
2022/02/07 15:30:50;;;;;;;14.40;3.52;;;;;;;3.12;73.68;99737.69;2113093;83;20993;-88
2022/02/07 15:33:51;;;;;;;16.95;5.00;;;;;;;3.11;73.47;99743.41;2063400;83;21662;-87
2022/02/07 15:36:53;;;;;;;10.18;3.65;;;;;;;3.12;73.58;99756.04;2116677;83;21008;-88
2022/02/07 15:39:56;;;;;;;13.05;3.77;;;;;;;3.12;72.74;99755.55;2091620;83;21000;-89
2022/02/07 15:42:57;;;;;;;33.45;11.12;;;;;;;3.14;72.42;99760.69;2116624;83;21071;-88
2022/02/07 15:45:58;;;;;;;36.53;9.63;;;;;;;3.14;72.92;99769.86;2113427;83;21074;-87
2022/02/07 15:49:00;;;;;;;24.98;8.33;;;;;;;3.15;72.84;99761.02;2088272;83;21033;-88
2022/02/07 15:52:03;;;;;;;21.45;8.93;;;;;;;3.14;72.29;99768.55;2114488;83;21512;-87
2022/02/07 15:55:07;;;;;;;21.57;7.37;;;;;;;3.15;72.46;99770.20;2115148;83;21017;-87
2022/02/07 15:58:09;;;;;;;16.45;6.35;;;;;;;3.14;72.38;99775.92;2115201;83;21002;-87
2022/02/07 16:01:10;;;;;;;15.43;6.00;;;;;;;3.13;72.34;99791.31;2120052;83;21057;-87
2022/02/07 16:04:12;;;;;;;21.87;6.87;;;;;;;3.10;72.46;99793.38;2115874;83;21036;-88
2022/02/07 16:07:13;;;;;;;13.45;4.42;;;;;;;3.02;72.18;99796.61;2110992;83;21039;-88
2022/02/07 16:10:17;;;;;;;10.53;3.80;;;;;;;2.99;72.02;99804.73;2114470;83;21657;-86
2022/02/07 16:13:20;;;;;;;13.43;4.08;;;;;;;2.96;71.88;99799.74;2117311;83;21058;-89
2022/02/07 16:16:22;;;;;;;14.25;4.25;;;;;;;2.94;72.01;99820.00;2114646;83;21004;-88
2022/02/07 16:19:23;;;;;;;17.10;4.72;;;;;;;2.88;71.94;99830.98;2110534;83;21117;-88
2022/02/07 16:22:25;;;;;;;14.45;5.30;;;;;;;2.83;71.37;99831.83;2085432;83;20979;-87
2022/02/07 16:25:26;;;;;;;12.95;2.85;;;;;;;2.80;71.30;99834.70;2114478;83;20984;-87
2022/02/07 16:28:28;;;;;;;10.25;3.33;;;;;;;2.76;70.74;99847.22;2117389;83;21093;-86
2022/02/07 16:31:31;;;;;;;17.48;5.12;;;;;;;2.76;70.78;99845.05;2117836;83;21515;-89
2022/02/07 16:34:33;;;;;;;19.60;6.62;;;;;;;2.73;70.72;99857.09;2115311;83;20991;-87
2022/02/07 16:37:34;;;;;;;10.88;3.70;;;;;;;2.64;71.04;99865.21;2117908;83;21605;-87
2022/02/07 16:40:37;;;;;;;9.15;3.33;;;;;;;2.55;71.18;99884.29;2119278;83;21049;-88
2022/02/07 16:43:41;;;;;;;13.28;4.20;;;;;;;2.51;71.24;99894.19;2115839;83;21915;-88
2022/02/07 16:46:51;;;;;;;17.90;4.08;;;;;;;2.55;71.36;99907.86;2114455;83;21538;-87
2022/02/07 16:49:52;;;;;;;13.30;3.95;;;;;;;2.58;71.47;99907.14;2115579;83;21010;-86
2022/02/07 16:52:53;;;;;;;10.03;3.10;;;;;;;2.57;71.68;99910.72;2115912;83;21099;-88
2022/02/07 16:55:55;;;;;;;12.18;4.00;;;;;;;2.52;71.70;99912.86;2113501;83;20988;-87
2022/02/07 16:58:58;;;;;;;9.73;3.65;;;;;;;2.47;71.52;99920.23;2115775;83;21005;-88
2022/02/07 17:02:00;;;;;;;13.43;3.27;;;;;;;2.44;71.39;99937.02;2116235;83;21007;-89
2022/02/07 17:05:01;;;;;;;8.88;3.50;;;;;;;2.40;70.95;99945.25;2114651;83;21078;-87
2022/02/07 17:08:03;;;;;;;12.33;3.60;;;;;;;2.36;71.14;99955.59;2114800;83;21503;-88
2022/02/07 17:11:05;;;;;;;7.85;3.10;;;;;;;2.33;71.25;99974.16;2117524;83;21013;-87
2022/02/07 17:14:09;;;;;;;8.35;3.70;;;;;;;2.32;71.20;99976.43;2117039;83;21066;-87
2022/02/07 17:17:10;;;;;;;16.93;4.47;;;;;;;2.32;71.30;99985.59;2117069;83;21420;-89
2022/02/07 17:20:14;;;;;;;16.67;4.22;;;;;;;2.35;71.42;100003.69;2113431;83;21503;-88
2022/02/07 17:23:16;;;;;;;17.17;4.50;;;;;;;2.35;71.53;100005.83;2109878;83;20979;-88
2022/02/07 17:26:18;;;;;;;11.85;3.67;;;;;;;2.31;71.54;100005.72;2115732;83;21017;-88
2022/02/07 17:29:19;;;;;;;13.13;4.30;;;;;;;2.30;71.79;100004.51;2119949;83;21039;-87
2022/02/07 17:32:21;;;;;;;8.93;4.05;;;;;;;2.22;71.97;100007.25;2116609;83;21055;-88
2022/02/07 17:35:22;;;;;;;12.18;3.02;;;;;;;2.12;72.36;100014.11;2117325;83;21298;-87
2022/02/07 17:38:31;;;;;;;9.25;3.15;;;;;;;1.99;72.73;100021.20;2116565;83;20985;-87